createdAt,value
2017-06-25T00:00:43.624Z,8.35
2017-06-25T00:03:18.255Z,7.90
2017-06-25T00:05:53.476Z,10.05
2017-06-25T00:08:28.028Z,7.93
2017-06-25T00:11:02.440Z,7.68
2017-06-25T00:13:36.978Z,8.73
2017-06-25T00:16:11.460Z,8.50
2017-06-25T00:18:46.008Z,8.95
2017-06-25T00:21:20.473Z,8.18
2017-06-25T00:23:54.892Z,8.30
2017-06-25T00:26:29.356Z,8.75
2017-06-25T00:29:03.788Z,8.40
2017-06-25T00:31:38.200Z,9.52
2017-06-25T00:34:12.736Z,8.65
2017-06-25T00:36:47.253Z,7.80
2017-06-25T00:39:21.757Z,8.95
2017-06-25T00:41:56.201Z,8.63
2017-06-25T00:44:30.720Z,9.48
2017-06-25T00:47:05.428Z,9.15
2017-06-25T00:49:39.745Z,8.88
2017-06-25T00:52:14.160Z,10.38
2017-06-25T00:54:48.618Z,9.45
2017-06-25T00:57:23.310Z,9.30
2017-06-25T00:59:57.721Z,9.88
2017-06-25T01:02:32.175Z,11.23
2017-06-25T01:05:06.781Z,10.38
2017-06-25T01:07:41.336Z,10.75
2017-06-25T01:10:15.822Z,9.45
2017-06-25T01:12:51.172Z,11.63
2017-06-25T01:15:25.581Z,11.50
2017-06-25T01:18:00.149Z,10.02
2017-06-25T01:20:34.745Z,11.38
2017-06-25T01:23:09.460Z,11.05
2017-06-25T01:25:43.989Z,10.60
2017-06-25T01:28:18.496Z,11.80
2017-06-25T01:30:53.143Z,11.82
2017-06-25T01:33:27.626Z,11.93
2017-06-25T01:36:02.261Z,12.45
2017-06-25T01:38:37.500Z,14.60
2017-06-25T01:41:11.924Z,17.05
2017-06-25T01:43:46.451Z,17.05
2017-06-25T01:46:20.897Z,16.17
2017-06-25T01:48:55.472Z,23.10
2017-06-25T01:51:30.013Z,16.58
2017-06-25T01:54:04.435Z,16.12
2017-06-25T01:56:39.012Z,17.12
2017-06-25T01:59:13.684Z,14.30
2017-06-25T02:01:48.237Z,14.07
2017-06-25T02:04:22.801Z,16.23
2017-06-25T02:06:57.213Z,17.02
2017-06-25T02:09:31.737Z,18.02
2017-06-25T02:12:06.115Z,23.00
2017-06-25T02:14:40.676Z,21.80
2017-06-25T02:17:15.848Z,19.08
2017-06-25T02:19:50.226Z,16.65
2017-06-25T02:22:24.613Z,19.20
2017-06-25T02:24:59.061Z,17.12
2017-06-25T02:27:33.628Z,17.02
2017-06-25T02:30:07.937Z,23.95
2017-06-25T02:32:42.688Z,20.37
2017-06-25T02:35:16.976Z,16.73
2017-06-25T02:37:52.241Z,18.60
2017-06-25T02:40:26.721Z,20.30
2017-06-25T02:43:01.092Z,20.77
2017-06-25T02:45:35.572Z,16.27
2017-06-25T02:48:10.003Z,18.10
2017-06-25T02:50:44.541Z,19.65
2017-06-25T02:53:19.149Z,15.95
2017-06-25T02:55:53.640Z,16.12
2017-06-25T02:58:28.085Z,19.33
2017-06-25T03:01:02.605Z,18.73
2017-06-25T03:03:37.250Z,17.90
2017-06-25T03:06:11.653Z,18.37
2017-06-25T03:08:46.212Z,20.17
2017-06-25T03:11:20.596Z,16.60
2017-06-25T03:13:54.934Z,19.33
2017-06-25T03:16:29.429Z,18.35
2017-06-25T03:19:03.952Z,23.75
2017-06-25T03:21:39.192Z,20.08
2017-06-25T03:24:14.532Z,16.75
2017-06-25T03:26:48.990Z,20.10
2017-06-25T03:29:23.576Z,16.92
2017-06-25T03:31:58.812Z,17.35
2017-06-25T03:34:33.234Z,16.15
2017-06-25T03:37:08.572Z,18.00
2017-06-25T03:39:42.988Z,13.93
2017-06-25T03:42:17.552Z,14.50
2017-06-25T03:44:52.014Z,15.30
2017-06-25T03:47:26.363Z,14.52
2017-06-25T03:50:00.876Z,14.20
2017-06-25T03:52:35.324Z,14.50
2017-06-25T03:55:09.781Z,15.15
2017-06-25T03:57:44.224Z,13.23
2017-06-25T04:00:19.532Z,13.02
2017-06-25T04:02:54.100Z,12.52
2017-06-25T04:05:28.718Z,12.70
2017-06-25T04:08:03.141Z,12.85
2017-06-25T04:10:37.769Z,12.60
2017-06-25T04:13:12.189Z,12.10
2017-06-25T04:15:46.569Z,14.48
2017-06-25T04:18:21.021Z,14.52
2017-06-25T04:20:55.564Z,15.10
2017-06-25T04:23:29.965Z,12.90
2017-06-25T04:26:04.481Z,16.23
2017-06-25T04:28:39.004Z,14.70
2017-06-25T04:31:13.424Z,12.68
2017-06-25T04:33:48.012Z,14.60
2017-06-25T04:36:22.560Z,15.20
2017-06-25T04:38:56.965Z,12.45
2017-06-25T04:41:31.404Z,11.57
2017-06-25T04:44:05.968Z,13.25
2017-06-25T04:46:40.516Z,10.75
2017-06-25T04:49:14.989Z,12.35
2017-06-25T04:51:50.317Z,15.88
2017-06-25T04:54:25.532Z,13.82
2017-06-25T04:57:00.268Z,10.20
2017-06-25T04:59:34.738Z,13.15
2017-06-25T05:02:09.225Z,14.25
2017-06-25T05:04:43.704Z,11.18
2017-06-25T05:07:18.090Z,13.32
2017-06-25T05:09:52.669Z,11.55
2017-06-25T05:12:27.173Z,13.30
2017-06-25T05:15:01.720Z,12.73
2017-06-25T05:17:36.252Z,17.08
2017-06-25T05:20:10.771Z,15.68
2017-06-25T05:22:45.400Z,16.95
2017-06-25T05:25:20.591Z,16.05
2017-06-25T05:27:55.377Z,21.83
2017-06-25T05:30:29.816Z,16.60
2017-06-25T05:33:04.292Z,17.85
2017-06-25T05:35:38.817Z,19.17
2017-06-25T05:38:13.228Z,19.40
2017-06-25T05:40:47.757Z,15.55
2017-06-25T05:43:22.201Z,22.65
2017-06-25T05:45:56.784Z,22.08
2017-06-25T05:48:31.228Z,20.15
2017-06-25T05:51:05.849Z,20.05
2017-06-25T05:53:40.264Z,21.48
2017-06-25T05:56:14.892Z,19.15
2017-06-25T05:58:50.161Z,20.67
2017-06-25T06:01:24.676Z,19.45
2017-06-25T06:03:59.152Z,18.80
2017-06-25T06:06:33.576Z,21.23
2017-06-25T06:09:08.095Z,25.80
2017-06-25T06:11:42.736Z,20.55
2017-06-25T06:14:17.941Z,22.23
2017-06-25T06:16:52.633Z,21.27
2017-06-25T06:19:27.734Z,21.58
2017-06-25T06:22:02.258Z,20.98
2017-06-25T06:24:36.572Z,18.95
2017-06-25T06:27:11.949Z,26.15
2017-06-25T06:29:46.344Z,19.85
2017-06-25T06:32:20.960Z,20.12
2017-06-25T06:34:55.513Z,17.27
2017-06-25T06:37:29.964Z,17.77
2017-06-25T06:40:04.420Z,16.52
2017-06-25T06:42:39.049Z,19.92
2017-06-25T06:45:14.269Z,16.15
2017-06-25T06:47:49.621Z,13.68
2017-06-25T06:50:24.148Z,14.48
2017-06-25T06:52:58.660Z,14.27
2017-06-25T06:55:33.804Z,13.55
2017-06-25T06:58:09.004Z,12.43
2017-06-25T07:00:43.588Z,10.98
2017-06-25T07:03:18.185Z,12.35
2017-06-25T07:05:52.839Z,9.50
2017-06-25T07:08:27.949Z,10.70
2017-06-25T07:11:02.407Z,10.25
2017-06-25T07:13:37.704Z,8.45
2017-06-25T07:16:12.328Z,10.43
2017-06-25T07:18:46.648Z,8.82
2017-06-25T07:21:21.352Z,5.80
2017-06-25T07:23:55.872Z,6.93
2017-06-25T07:26:30.420Z,13.93
2017-06-25T07:29:04.938Z,9.60
2017-06-25T07:31:39.361Z,7.00
2017-06-25T07:34:13.861Z,8.85
2017-06-25T07:36:48.399Z,8.50
2017-06-25T07:39:22.920Z,20.35
2017-06-25T07:41:57.966Z,8.02
2017-06-25T07:44:32.592Z,9.73
2017-06-25T07:47:06.996Z,8.98
2017-06-25T07:49:41.417Z,9.30
2017-06-25T07:52:15.940Z,7.80
2017-06-25T07:54:50.360Z,7.97
2017-06-25T07:57:25.124Z,8.38
2017-06-25T07:59:59.697Z,12.20
2017-06-25T08:02:34.173Z,11.48
2017-06-25T08:05:08.757Z,15.27
2017-06-25T08:07:44.222Z,12.70
2017-06-25T08:10:18.493Z,7.55
2017-06-25T08:12:53.135Z,9.38
2017-06-25T08:15:27.647Z,12.07
2017-06-25T08:18:02.098Z,6.60
2017-06-25T08:20:36.565Z,9.25
2017-06-25T08:23:10.940Z,5.65
2017-06-25T08:25:45.412Z,6.55
2017-06-25T08:28:19.958Z,5.35
2017-06-25T08:30:54.365Z,7.07
2017-06-25T08:33:28.792Z,7.25
2017-06-25T08:36:03.172Z,4.72
2017-06-25T08:38:37.560Z,8.48
2017-06-25T08:41:12.083Z,5.57
2017-06-25T08:43:46.620Z,5.20
2017-06-25T08:46:21.196Z,5.43
2017-06-25T08:48:55.721Z,5.10
2017-06-25T08:51:30.080Z,6.37
2017-06-25T08:54:04.669Z,7.22
2017-06-25T08:56:39.084Z,4.28
2017-06-25T08:59:13.477Z,3.83
2017-06-25T09:01:47.926Z,4.60
2017-06-25T09:04:22.228Z,4.25
2017-06-25T09:06:56.759Z,5.37
2017-06-25T09:09:31.324Z,3.17
2017-06-25T09:12:05.913Z,2.60
2017-06-25T09:14:41.359Z,4.15
2017-06-25T09:17:15.905Z,3.85
2017-06-25T09:19:50.260Z,3.25
2017-06-25T09:22:24.839Z,8.73
2017-06-25T09:24:59.212Z,4.10
2017-06-25T09:27:33.738Z,3.83
2017-06-25T09:30:08.175Z,4.72
2017-06-25T09:32:42.677Z,3.35
2017-06-25T09:35:17.116Z,7.72
2017-06-25T09:37:52.305Z,2.80
2017-06-25T09:40:26.968Z,3.55
2017-06-25T09:43:01.376Z,3.20
2017-06-25T09:45:36.424Z,2.70
2017-06-25T09:48:10.924Z,4.50
2017-06-25T09:50:45.344Z,8.97
2017-06-25T09:53:19.876Z,3.47
2017-06-25T09:55:54.316Z,3.23
2017-06-25T09:58:29.713Z,1.67
2017-06-25T10:01:04.190Z,2.90
2017-06-25T10:03:38.583Z,3.00
2017-06-25T10:06:13.993Z,4.13
2017-06-25T10:08:48.420Z,4.40
2017-06-25T10:11:22.896Z,2.70
2017-06-25T10:13:57.440Z,3.05
2017-06-25T10:16:31.916Z,10.02
2017-06-25T10:19:06.245Z,3.28
2017-06-25T10:21:40.860Z,2.95
2017-06-25T10:24:15.273Z,3.17
2017-06-25T10:26:49.708Z,3.83
2017-06-25T10:29:24.200Z,1.90
2017-06-25T10:31:58.664Z,6.60
2017-06-25T10:34:33.008Z,5.12
2017-06-25T10:37:07.425Z,7.72
2017-06-25T10:39:41.900Z,1.48
2017-06-25T10:42:16.271Z,6.60
2017-06-25T10:44:50.720Z,4.60
2017-06-25T10:47:25.089Z,4.15
2017-06-25T10:49:59.614Z,1.92
2017-06-25T10:52:33.996Z,5.70
2017-06-25T10:55:08.368Z,9.35
2017-06-25T10:57:42.732Z,5.10
2017-06-25T11:00:17.225Z,4.05
2017-06-25T11:02:51.718Z,3.45
2017-06-25T11:05:27.052Z,11.95
2017-06-25T11:08:01.493Z,2.95
2017-06-25T11:10:36.058Z,6.10
2017-06-25T11:13:10.564Z,2.95
2017-06-25T11:15:45.008Z,2.90
2017-06-25T11:18:19.440Z,5.72
2017-06-25T11:20:54.139Z,4.45
2017-06-25T11:23:28.547Z,4.97
2017-06-25T11:26:03.188Z,28.83
2017-06-25T11:28:37.561Z,5.07
2017-06-25T11:31:12.033Z,3.03
2017-06-25T11:33:46.549Z,4.45
2017-06-25T11:36:21.290Z,3.90
2017-06-25T11:38:55.775Z,3.37
2017-06-25T11:41:30.302Z,6.97
2017-06-25T11:44:04.808Z,6.03
2017-06-25T11:46:39.205Z,5.30
2017-06-25T11:49:13.698Z,3.87
2017-06-25T11:51:48.195Z,2.10
2017-06-25T11:54:22.642Z,4.95
2017-06-25T11:56:57.121Z,4.10
2017-06-25T11:59:31.588Z,4.43
2017-06-25T12:02:06.048Z,4.85
2017-06-25T12:04:41.168Z,6.53
2017-06-25T12:07:15.612Z,6.03
2017-06-25T12:09:50.080Z,7.60
2017-06-25T12:12:24.480Z,9.05
2017-06-25T12:14:58.968Z,3.58
2017-06-25T12:17:33.408Z,2.10
2017-06-25T12:20:08.612Z,6.03
2017-06-25T12:22:43.180Z,2.05
2017-06-25T12:25:17.560Z,7.43
2017-06-25T12:27:52.000Z,3.62
2017-06-25T12:30:26.520Z,6.25
2017-06-25T12:33:00.927Z,2.58
2017-06-25T12:35:36.176Z,2.95
2017-06-25T12:38:11.519Z,2.47
2017-06-25T12:40:46.044Z,3.87
2017-06-25T12:43:20.472Z,3.05
2017-06-25T12:45:54.944Z,6.37
2017-06-25T12:48:29.396Z,11.50
2017-06-25T12:51:03.953Z,6.37
2017-06-25T12:53:38.336Z,4.07
2017-06-25T12:56:12.797Z,3.45
2017-06-25T12:58:47.276Z,5.57
2017-06-25T13:01:21.824Z,5.35
2017-06-25T13:03:56.312Z,2.65
2017-06-25T13:06:30.669Z,3.00
2017-06-25T13:09:05.045Z,7.82
2017-06-25T13:11:39.413Z,2.28
2017-06-25T13:14:13.784Z,4.12
2017-06-25T13:16:49.129Z,3.87
2017-06-25T13:19:23.564Z,2.72
2017-06-25T13:21:57.974Z,4.25
2017-06-25T13:24:32.540Z,3.03
2017-06-25T13:27:06.998Z,1.80
2017-06-25T13:29:41.448Z,4.90
2017-06-25T13:32:15.920Z,3.33
2017-06-25T13:34:50.313Z,2.10
2017-06-25T13:37:24.764Z,2.15
2017-06-25T13:39:59.164Z,1.37
2017-06-25T13:42:33.640Z,1.62
2017-06-25T13:45:08.028Z,4.75
2017-06-25T13:47:42.571Z,5.10
2017-06-25T13:50:17.093Z,2.95
2017-06-25T13:52:51.740Z,4.28
2017-06-25T13:55:26.112Z,2.78
2017-06-25T13:58:00.504Z,6.93
2017-06-25T14:00:34.892Z,2.95
2017-06-25T14:03:09.321Z,3.03
2017-06-25T14:05:44.680Z,2.50
2017-06-25T14:08:19.172Z,3.87
2017-06-25T14:10:54.468Z,4.12
2017-06-25T14:13:29.048Z,3.37
2017-06-25T14:16:03.543Z,6.43
2017-06-25T14:18:37.956Z,6.25
2017-06-25T14:21:12.276Z,5.37
2017-06-25T14:23:47.420Z,6.85
2017-06-25T14:26:21.929Z,6.72
2017-06-25T14:28:56.353Z,4.60
2017-06-25T14:31:30.817Z,4.40
2017-06-25T14:34:05.179Z,5.30
2017-06-25T14:36:39.621Z,3.28
2017-06-25T14:39:14.131Z,2.83
2017-06-25T14:41:48.704Z,5.07
2017-06-25T14:44:23.280Z,6.57
2017-06-25T14:46:57.917Z,4.82
2017-06-25T14:49:32.400Z,4.30
2017-06-25T14:52:06.828Z,4.65
2017-06-25T14:54:42.052Z,4.15
2017-06-25T14:57:16.509Z,9.63
2017-06-25T14:59:51.079Z,6.87
2017-06-25T15:02:25.641Z,6.62
2017-06-25T15:05:00.076Z,2.90
2017-06-25T15:07:34.577Z,6.00
2017-06-25T15:10:09.117Z,6.55
2017-06-25T15:12:43.613Z,6.15
2017-06-25T15:15:18.068Z,6.32
2017-06-25T15:17:52.575Z,4.20
2017-06-25T15:20:27.216Z,3.60
2017-06-25T15:23:01.683Z,8.52
2017-06-25T15:25:36.037Z,5.40
2017-06-25T15:28:10.539Z,3.97
2017-06-25T15:30:45.023Z,4.72
2017-06-25T15:33:19.368Z,5.95
2017-06-25T15:35:53.848Z,12.95
2017-06-25T15:38:28.352Z,8.85
2017-06-25T15:41:02.732Z,6.85
2017-06-25T15:43:37.200Z,4.80
2017-06-25T15:46:11.621Z,4.45
2017-06-25T15:48:46.126Z,5.10
2017-06-25T15:51:20.537Z,6.32
2017-06-25T15:53:55.052Z,4.43
2017-06-25T15:56:29.492Z,3.20
2017-06-25T15:59:04.003Z,5.25
2017-06-25T16:01:38.641Z,5.93
2017-06-25T16:04:13.157Z,6.95
2017-06-25T16:06:48.509Z,4.75
2017-06-25T16:09:22.893Z,6.00
2017-06-25T16:11:57.336Z,3.40
2017-06-25T16:14:31.844Z,6.20
2017-06-25T16:17:06.266Z,5.50
2017-06-25T16:19:40.701Z,7.82
2017-06-25T16:22:15.100Z,3.78
2017-06-25T16:24:49.596Z,6.90
2017-06-25T16:27:24.152Z,5.65
2017-06-25T16:29:58.557Z,6.97
2017-06-25T16:32:33.078Z,5.30
2017-06-25T16:35:07.657Z,8.02
2017-06-25T16:37:42.516Z,5.10
2017-06-25T16:40:17.104Z,6.57
2017-06-25T16:42:51.452Z,4.28
2017-06-25T16:45:25.894Z,3.95
2017-06-25T16:48:00.428Z,5.65
2017-06-25T16:50:34.828Z,2.22
2017-06-25T16:53:09.316Z,7.45
2017-06-25T16:55:43.800Z,4.80
2017-06-25T16:58:18.277Z,4.97
2017-06-25T17:00:52.721Z,11.05
2017-06-25T17:03:27.238Z,7.05
2017-06-25T17:06:01.885Z,6.30
2017-06-25T17:08:36.388Z,3.72
2017-06-25T17:11:10.956Z,10.88
2017-06-25T17:13:45.445Z,4.47
2017-06-25T17:16:19.763Z,6.37
2017-06-25T17:18:54.298Z,5.82
2017-06-25T17:21:28.804Z,6.43
2017-06-25T17:24:03.096Z,5.45
2017-06-25T17:26:37.565Z,6.68
2017-06-25T17:29:12.061Z,5.30
2017-06-25T17:31:46.520Z,4.25
2017-06-25T17:34:21.113Z,5.95
2017-06-25T17:36:55.846Z,3.33
2017-06-25T17:39:31.037Z,7.00
2017-06-25T17:42:05.736Z,4.75
2017-06-25T17:44:40.840Z,6.90
2017-06-25T17:47:16.277Z,4.75
2017-06-25T17:49:50.676Z,6.43
2017-06-25T17:52:25.349Z,4.80
2017-06-25T17:54:59.646Z,6.18
2017-06-25T17:57:34.016Z,6.82
2017-06-25T18:00:08.442Z,9.75
2017-06-25T18:02:42.976Z,7.12
2017-06-25T18:05:17.426Z,5.40
2017-06-25T18:07:51.829Z,2.92
2017-06-25T18:10:26.260Z,4.68
2017-06-25T18:13:00.740Z,5.00
2017-06-25T18:15:35.221Z,5.07
2017-06-25T18:18:09.696Z,7.40
2017-06-25T18:20:44.066Z,5.47
2017-06-25T18:23:18.537Z,7.30
2017-06-25T18:25:52.922Z,5.22
2017-06-25T18:28:27.540Z,5.50
2017-06-25T18:31:02.119Z,8.50
2017-06-25T18:33:36.548Z,4.15
2017-06-25T18:36:11.079Z,8.25
2017-06-25T18:38:45.433Z,5.25
2017-06-25T18:41:19.821Z,1.73
2017-06-25T18:43:54.317Z,6.80
2017-06-25T18:46:28.704Z,8.93
2017-06-25T18:49:03.159Z,4.15
2017-06-25T18:51:37.780Z,5.12
2017-06-25T18:54:12.358Z,10.77
2017-06-25T18:56:46.833Z,3.33
2017-06-25T18:59:21.349Z,7.12
2017-06-25T19:01:55.760Z,4.37
2017-06-25T19:04:30.285Z,10.60
2017-06-25T19:07:04.616Z,5.07
2017-06-25T19:09:39.112Z,6.37
2017-06-25T19:12:13.460Z,7.75
2017-06-25T19:14:47.941Z,4.32
2017-06-25T19:17:22.357Z,6.68
2017-06-25T19:19:56.859Z,4.07
2017-06-25T19:22:31.329Z,2.87
2017-06-25T19:25:05.695Z,10.38
2017-06-25T19:27:40.272Z,3.72
2017-06-25T19:30:14.792Z,10.57
2017-06-25T19:32:49.100Z,8.75
2017-06-25T19:35:23.729Z,4.57
2017-06-25T19:37:58.148Z,4.32
2017-06-25T19:40:32.581Z,6.50
2017-06-25T19:43:07.063Z,7.50
2017-06-25T19:45:41.472Z,4.62
2017-06-25T19:48:16.712Z,5.68
2017-06-25T19:50:51.308Z,3.30
2017-06-25T19:53:25.832Z,6.07
2017-06-25T19:56:00.316Z,5.97
2017-06-25T19:58:34.609Z,4.28
2017-06-25T20:01:09.052Z,8.85
2017-06-25T20:03:43.463Z,5.70
2017-06-25T20:06:17.890Z,10.75
2017-06-25T20:08:52.348Z,2.33
2017-06-25T20:11:26.808Z,5.00
2017-06-25T20:14:02.172Z,8.50
2017-06-25T20:16:36.689Z,2.22
2017-06-25T20:19:11.228Z,5.20
2017-06-25T20:21:45.849Z,3.87
2017-06-25T20:24:20.359Z,4.43
2017-06-25T20:26:54.904Z,5.65
2017-06-25T20:29:30.142Z,5.28
2017-06-25T20:32:05.561Z,8.73
2017-06-25T20:34:40.289Z,15.07
2017-06-25T20:37:14.615Z,13.75
2017-06-25T20:39:49.239Z,3.85
2017-06-25T20:42:23.740Z,6.68
2017-06-25T20:44:58.156Z,4.40
2017-06-25T20:47:32.676Z,6.82
2017-06-25T20:50:07.092Z,5.32
2017-06-25T20:52:41.616Z,6.87
2017-06-25T20:55:16.052Z,6.00
2017-06-25T20:57:50.541Z,5.85
2017-06-25T21:00:24.911Z,5.28
2017-06-25T21:02:59.416Z,6.35
2017-06-25T21:05:33.844Z,6.57
2017-06-25T21:08:08.318Z,7.87
2017-06-25T21:10:43.549Z,6.75
2017-06-25T21:13:18.809Z,8.63
2017-06-25T21:15:53.227Z,5.35
2017-06-25T21:18:27.773Z,8.80
2017-06-25T21:21:02.327Z,7.93
2017-06-25T21:23:36.817Z,8.90
2017-06-25T21:26:11.233Z,2.95
2017-06-25T21:28:45.636Z,6.57
2017-06-25T21:31:20.117Z,7.32
2017-06-25T21:33:54.613Z,7.45
2017-06-25T21:36:29.897Z,6.00
2017-06-25T21:39:04.464Z,7.37
2017-06-25T21:41:38.932Z,6.25
2017-06-25T21:44:13.389Z,8.77
2017-06-25T21:46:47.916Z,5.85
2017-06-25T21:49:22.304Z,5.95
2017-06-25T21:51:56.848Z,5.18
2017-06-25T21:54:31.292Z,7.57
2017-06-25T21:57:06.568Z,5.35
2017-06-25T21:59:41.845Z,8.68
2017-06-25T22:02:17.225Z,8.98
2017-06-25T22:04:51.716Z,3.60
2017-06-25T22:07:26.017Z,4.37
2017-06-25T22:10:01.472Z,7.03
2017-06-25T22:12:35.889Z,5.93
2017-06-25T22:15:10.325Z,5.07
2017-06-25T22:17:44.816Z,9.65
2017-06-25T22:20:19.257Z,3.05
2017-06-25T22:22:54.468Z,5.75
2017-06-25T22:25:29.827Z,7.18
2017-06-25T22:28:04.232Z,8.57
2017-06-25T22:30:38.615Z,8.05
2017-06-25T22:33:13.756Z,9.18
2017-06-25T22:35:48.112Z,3.50
2017-06-25T22:38:22.659Z,5.97
2017-06-25T22:40:57.085Z,2.40
2017-06-25T22:43:31.452Z,10.65
2017-06-25T22:46:05.802Z,6.12
2017-06-25T22:48:40.300Z,10.63
2017-06-25T22:51:14.668Z,3.00
2017-06-25T22:53:49.128Z,6.87
2017-06-25T22:56:23.546Z,6.70
2017-06-25T22:58:58.099Z,5.82
2017-06-25T23:01:32.517Z,5.53
2017-06-25T23:04:07.020Z,4.93
2017-06-25T23:06:41.505Z,5.80
2017-06-25T23:09:16.060Z,7.03
2017-06-25T23:11:50.519Z,8.43
2017-06-25T23:14:25.012Z,6.28
2017-06-25T23:16:59.478Z,8.65
2017-06-25T23:19:33.953Z,8.35
2017-06-25T23:22:08.528Z,5.78
2017-06-25T23:24:43.047Z,3.37
2017-06-25T23:27:18.328Z,3.62
2017-06-25T23:29:52.988Z,4.65
2017-06-25T23:32:27.433Z,10.77
2017-06-25T23:35:01.836Z,4.87
2017-06-25T23:37:36.189Z,2.62
2017-06-25T23:40:10.593Z,3.85
2017-06-25T23:42:45.080Z,5.78
2017-06-25T23:45:19.672Z,4.95
2017-06-25T23:47:54.253Z,5.20
2017-06-25T23:50:28.830Z,7.25
2017-06-25T23:53:03.224Z,8.18
2017-06-25T23:55:37.742Z,2.95
2017-06-25T23:58:12.084Z,4.10
